createdAt,value
2022-08-18T03:02:18.466Z,17.80
2022-08-18T03:04:45.667Z,17.80
2022-08-18T03:07:14.769Z,17.90
2022-08-18T03:09:42.090Z,18.00
2022-08-18T03:12:09.989Z,18.00
2022-08-18T03:14:37.888Z,17.90
2022-08-18T03:17:08.293Z,17.90
2022-08-18T03:19:36.221Z,18.00
2022-08-18T03:22:05.873Z,18.00
2022-08-18T03:24:53.948Z,18.00
2022-08-18T03:27:21.129Z,18.00
2022-08-18T03:29:48.380Z,18.00
2022-08-18T03:32:15.566Z,18.00
2022-08-18T03:34:43.677Z,17.90
2022-08-18T03:37:10.997Z,18.00
2022-08-18T03:39:38.403Z,18.10
2022-08-18T03:42:05.746Z,18.10
2022-08-18T03:44:38.330Z,18.10
2022-08-18T03:47:10.371Z,18.10
2022-08-18T03:49:38.657Z,18.10
2022-08-18T03:52:09.458Z,18.10
2022-08-18T03:54:38.907Z,18.10
2022-08-18T03:57:09.296Z,18.10
2022-08-18T03:59:36.590Z,18.10
2022-08-18T04:02:05.472Z,18.10
2022-08-18T04:04:33.615Z,18.10
2022-08-18T04:07:05.528Z,18.00
2022-08-18T04:09:34.140Z,18.10
2022-08-18T04:12:16.702Z,17.70
2022-08-18T04:14:48.466Z,17.60
2022-08-18T04:17:23.647Z,17.60
2022-08-18T04:19:56.765Z,17.50
2022-08-18T04:22:25.367Z,17.50
2022-08-18T04:24:53.725Z,17.50
2022-08-18T04:27:22.222Z,17.50
2022-08-18T04:29:49.925Z,17.60
2022-08-18T04:32:17.781Z,17.70
2022-08-18T04:34:45.322Z,17.70
2022-08-18T04:37:15.366Z,17.70
2022-08-18T04:39:43.484Z,17.70
2022-08-18T04:42:11.287Z,17.70
2022-08-18T04:44:38.861Z,17.80
2022-08-18T04:47:09.095Z,17.90
2022-08-18T04:49:36.833Z,17.90
2022-08-18T04:52:40.502Z,18.00
2022-08-18T04:55:10.347Z,18.10
2022-08-18T04:57:37.750Z,18.20
2022-08-18T05:00:07.361Z,18.40
2022-08-18T05:02:34.947Z,18.40
2022-08-18T05:05:03.790Z,18.50
2022-08-18T05:07:31.761Z,18.40
2022-08-18T05:09:59.200Z,18.50
2022-08-18T05:12:27.004Z,18.40
2022-08-18T05:14:57.197Z,18.30
2022-08-18T05:17:29.033Z,18.30
2022-08-18T05:19:59.921Z,18.30
2022-08-18T05:22:30.418Z,18.40
2022-08-18T05:24:59.979Z,18.40
2022-08-18T05:27:35.203Z,18.50
2022-08-18T05:30:04.157Z,18.50
2022-08-18T05:32:48.754Z,18.50
2022-08-18T05:35:22.175Z,18.40
2022-08-18T05:38:03.214Z,18.60
2022-08-18T05:40:31.069Z,18.50
2022-08-18T05:42:59.902Z,18.50
2022-08-18T05:45:27.352Z,18.60
2022-08-18T05:48:00.047Z,18.60
2022-08-18T05:50:31.074Z,18.70
2022-08-18T05:53:13.538Z,18.70
2022-08-18T05:56:10.812Z,18.60
2022-08-18T05:58:43.492Z,18.50
2022-08-18T06:01:18.306Z,18.50
2022-08-18T06:03:54.662Z,18.60
2022-08-18T06:06:26.033Z,18.60
2022-08-18T06:09:18.796Z,18.80
2022-08-18T06:11:47.182Z,19.00
2022-08-18T06:14:14.597Z,19.10
2022-08-18T06:17:04.390Z,19.00
2022-08-18T06:19:59.809Z,19.10
2022-08-18T06:22:53.283Z,19.40
2022-08-18T06:25:55.645Z,19.50
2022-08-18T06:28:22.995Z,19.60
2022-08-18T06:31:02.683Z,19.80
2022-08-18T06:33:57.314Z,19.90
2022-08-18T06:36:36.355Z,20.00
2022-08-18T06:39:26.381Z,19.90
2022-08-18T06:41:54.630Z,20.10
2022-08-18T06:44:38.975Z,20.50
2022-08-18T06:47:08.949Z,20.50
2022-08-18T06:49:46.614Z,20.70
2022-08-18T06:52:19.815Z,21.00
2022-08-18T06:54:51.471Z,21.10
2022-08-18T06:57:26.585Z,21.20
2022-08-18T07:00:01.174Z,21.10
2022-08-18T07:02:47.295Z,21.10
2022-08-18T07:05:14.423Z,21.10
2022-08-18T07:07:43.324Z,21.00
2022-08-18T07:10:16.436Z,20.80
2022-08-18T07:12:44.035Z,20.60
2022-08-18T07:15:12.718Z,20.40
2022-08-18T07:17:43.565Z,20.60
2022-08-18T07:20:22.290Z,20.90
2022-08-18T07:22:55.027Z,20.90
2022-08-18T07:25:26.843Z,21.10
2022-08-18T07:27:56.699Z,21.50
2022-08-18T07:30:24.810Z,21.80
2022-08-18T07:33:19.875Z,21.90
2022-08-18T07:35:49.482Z,21.90
2022-08-18T07:38:41.913Z,21.80
2022-08-18T07:41:16.779Z,21.50
2022-08-18T07:43:59.406Z,21.40
2022-08-18T07:46:43.433Z,21.30
2022-08-18T07:49:21.987Z,21.30
2022-08-18T07:51:56.341Z,21.50
2022-08-18T07:55:01.268Z,21.90
2022-08-18T07:58:02.174Z,21.90
2022-08-18T08:00:57.372Z,21.70
2022-08-18T08:03:41.524Z,22.00
2022-08-18T08:06:23.803Z,22.60
2022-08-18T08:08:55.020Z,23.20
2022-08-18T08:11:28.243Z,23.50
2022-08-18T08:14:37.410Z,23.20
2022-08-18T08:17:07.443Z,22.80
2022-08-18T08:20:09.751Z,23.10
2022-08-18T08:22:45.108Z,23.90
2022-08-18T08:25:42.736Z,24.40
2022-08-18T08:28:14.552Z,24.80
2022-08-18T08:30:52.733Z,25.40
2022-08-18T08:33:28.314Z,25.70
2022-08-18T08:36:07.921Z,26.30
2022-08-18T08:38:55.552Z,26.90
2022-08-18T08:41:33.318Z,27.70
2022-08-18T08:44:13.438Z,27.50
2022-08-18T08:47:35.680Z,27.60
2022-08-18T08:50:21.740Z,27.90
2022-08-18T08:53:01.159Z,28.10
2022-08-18T08:55:45.567Z,28.40
2022-08-18T08:58:31.749Z,28.60
2022-08-18T09:00:59.977Z,28.40
2022-08-18T09:03:56.478Z,28.40
2022-08-18T09:06:32.797Z,28.20
2022-08-18T09:09:11.117Z,27.80
2022-08-18T09:12:04.740Z,27.20
2022-08-18T09:14:54.957Z,27.30
2022-08-18T09:17:45.381Z,27.40
2022-08-18T09:20:37.430Z,26.90
2022-08-18T09:23:10.649Z,26.50
2022-08-18T09:25:43.510Z,26.20
2022-08-18T09:28:16.996Z,26.30
2022-08-18T09:31:19.631Z,26.20
2022-08-18T09:34:10.945Z,26.00
2022-08-18T09:36:38.222Z,26.00
2022-08-18T09:39:54.451Z,26.20
2022-08-18T09:42:49.767Z,26.20
2022-08-18T09:45:47.076Z,25.80
2022-08-18T09:48:20.794Z,26.00
2022-08-18T09:50:58.228Z,25.80
2022-08-18T09:53:57.014Z,25.80
2022-08-18T09:56:54.470Z,26.10
2022-08-18T09:59:39.197Z,26.30
2022-08-18T10:02:29.180Z,26.40
2022-08-18T10:05:15.590Z,26.70
2022-08-18T10:08:14.749Z,26.10
2022-08-18T10:11:00.755Z,26.00
2022-08-18T10:13:48.882Z,26.00
2022-08-18T10:16:57.693Z,25.90
2022-08-18T10:19:52.306Z,25.50
2022-08-18T10:22:43.272Z,25.30
2022-08-18T10:25:22.550Z,25.30
2022-08-18T10:27:54.158Z,25.30
2022-08-18T10:30:34.589Z,25.20
2022-08-18T10:33:32.664Z,25.30
2022-08-18T10:36:03.247Z,25.10
2022-08-18T10:38:46.107Z,24.90
2022-08-18T10:41:31.670Z,25.00
2022-08-18T10:44:01.310Z,25.30
2022-08-18T10:46:39.552Z,25.50
2022-08-18T10:49:13.240Z,25.10
2022-08-18T10:52:04.056Z,24.70
2022-08-18T10:54:59.993Z,24.40
2022-08-18T10:58:09.656Z,24.20
2022-08-18T11:00:51.643Z,23.90
2022-08-18T11:06:18.163Z,24.00
2022-08-18T11:08:55.213Z,24.20
2022-08-18T11:14:44.739Z,24.20
2022-08-18T11:17:32.096Z,24.20
2022-08-18T11:20:01.784Z,24.10
2022-08-18T11:22:34.076Z,24.20
2022-08-18T11:25:03.533Z,24.20
2022-08-18T11:27:37.375Z,24.30
2022-08-18T11:30:12.259Z,24.20
2022-08-18T11:32:51.370Z,24.00
2022-08-18T11:35:41.753Z,24.10
2022-08-18T11:38:13.577Z,24.30
2022-08-18T11:41:10.698Z,24.20
2022-08-18T11:43:42.495Z,24.00
2022-08-18T11:46:29.496Z,24.00
2022-08-18T11:49:13.882Z,24.10
2022-08-18T11:52:03.137Z,24.10
2022-08-18T11:54:50.086Z,23.80
2022-08-18T11:57:46.545Z,24.10
2022-08-18T12:00:35.849Z,24.30
2022-08-18T12:03:28.404Z,24.60
2022-08-18T12:05:59.615Z,24.70
2022-08-18T12:11:41.233Z,24.90
2022-08-18T12:14:31.289Z,24.90
2022-08-18T12:17:08.301Z,24.90
2022-08-18T12:19:35.598Z,25.10
2022-08-18T12:22:17.791Z,25.30
2022-08-18T12:24:46.650Z,25.30
2022-08-18T12:27:20.797Z,25.10
2022-08-18T12:29:50.563Z,24.90
2022-08-18T12:32:46.894Z,24.70
2022-08-18T12:35:11.254Z,24.50
2022-08-18T12:37:59.062Z,24.40
2022-08-18T12:40:27.111Z,24.30
2022-08-18T12:42:55.890Z,24.10
2022-08-18T12:45:24.722Z,23.90
2022-08-18T12:47:52.743Z,23.80
2022-08-18T12:50:20.193Z,23.80
2022-08-18T12:52:59.261Z,23.80
2022-08-18T12:55:29.538Z,23.60
2022-08-18T12:57:56.922Z,23.60
2022-08-18T13:00:28.822Z,23.40
2022-08-18T13:02:57.603Z,23.20
2022-08-18T13:05:27.721Z,23.20
2022-08-18T13:08:00.861Z,23.20
2022-08-18T13:10:43.226Z,23.20
2022-08-18T13:13:15.577Z,23.20
2022-08-18T13:15:55.660Z,23.40
2022-08-18T13:18:28.533Z,23.40
2022-08-18T13:20:58.784Z,23.30
2022-08-18T13:23:30.549Z,23.30
2022-08-18T13:26:02.074Z,23.40
2022-08-18T13:28:33.576Z,23.50
2022-08-18T13:31:06.755Z,23.50
2022-08-18T13:33:56.696Z,23.50
2022-08-18T13:36:23.033Z,23.40
2022-08-18T13:38:54.906Z,23.50
2022-08-18T13:43:52.227Z,23.50
2022-08-18T13:46:30.001Z,23.40
2022-08-18T13:49:02.209Z,23.40
2022-08-18T13:51:30.852Z,23.20
2022-08-18T13:54:26.598Z,23.30
2022-08-18T13:56:51.770Z,23.30
2022-08-18T13:59:21.835Z,23.30
2022-08-18T14:01:53.188Z,23.30
2022-08-18T14:04:22.531Z,23.40
2022-08-18T14:06:57.221Z,23.40
2022-08-18T14:09:27.651Z,23.30
2022-08-18T14:12:07.101Z,23.30
2022-08-18T14:14:43.654Z,23.30
2022-08-18T14:17:10.869Z,23.30
2022-08-18T14:19:56.728Z,23.30
2022-08-18T14:22:43.058Z,23.30
2022-08-18T14:25:29.126Z,23.30
2022-08-18T14:27:59.035Z,23.20
2022-08-18T14:30:31.542Z,23.20
2022-08-18T14:32:59.758Z,23.10
2022-08-18T14:36:04.467Z,23.10
2022-08-18T14:38:16.046Z,23.00
2022-08-18T14:40:44.893Z,22.80
2022-08-18T14:43:14.697Z,22.60
2022-08-18T14:45:48.924Z,22.50
2022-08-18T14:48:18.874Z,22.50
2022-08-18T14:50:50.089Z,22.50
2022-08-18T14:53:20.293Z,22.50
2022-08-18T14:55:52.136Z,22.60
2022-08-18T14:58:20.907Z,22.70
2022-08-18T15:00:53.852Z,22.70
2022-08-18T15:03:30.893Z,22.70
2022-08-18T15:06:00.756Z,22.70
2022-08-18T15:08:34.415Z,22.70
2022-08-18T15:11:06.059Z,22.60
2022-08-18T15:13:41.887Z,22.50
2022-08-18T15:16:13.476Z,22.40
2022-08-18T15:18:44.999Z,22.40
2022-08-18T15:21:35.614Z,22.40
2022-08-18T15:24:25.520Z,22.30
2022-08-18T15:27:06.148Z,22.10
2022-08-18T15:29:41.386Z,21.80
2022-08-18T15:32:10.493Z,21.70
2022-08-18T15:34:47.268Z,21.50
2022-08-18T15:37:22.254Z,21.30
2022-08-18T15:40:02.815Z,20.60
2022-08-18T15:42:30.401Z,20.30
2022-08-18T15:45:11.953Z,20.10
2022-08-18T15:47:41.836Z,19.90
2022-08-18T15:50:25.281Z,19.80
2022-08-18T15:52:58.022Z,19.70
2022-08-18T15:55:28.867Z,19.60
2022-08-18T15:57:58.573Z,19.70
2022-08-18T16:00:29.755Z,19.70
2022-08-18T16:03:02.236Z,19.70
2022-08-18T16:05:40.802Z,19.60
2022-08-18T16:08:10.361Z,19.60
2022-08-18T16:10:39.418Z,19.70
2022-08-18T16:13:07.704Z,19.70
2022-08-18T16:15:40.218Z,19.70
2022-08-18T16:18:08.753Z,19.70
2022-08-18T16:20:37.408Z,19.70
2022-08-18T16:23:05.581Z,19.80
2022-08-18T16:25:33.312Z,19.80
2022-08-18T16:28:01.129Z,19.80
2022-08-18T16:30:29.194Z,19.60
2022-08-18T16:33:02.719Z,19.50
2022-08-18T16:35:31.723Z,19.60
2022-08-18T16:38:09.368Z,19.70
2022-08-18T16:40:37.597Z,19.80
2022-08-18T16:43:05.849Z,19.70
2022-08-18T16:45:35.883Z,19.80
2022-08-18T16:48:03.849Z,19.80
2022-08-18T16:50:31.118Z,19.90
2022-08-18T16:52:58.325Z,19.80
2022-08-18T16:55:25.944Z,19.80
2022-08-18T16:58:15.485Z,19.90
2022-08-18T17:01:02.321Z,19.90
2022-08-18T17:03:48.153Z,19.90
2022-08-18T17:06:18.208Z,19.90
2022-08-18T17:08:47.230Z,19.90
2022-08-18T17:11:17.958Z,19.90
2022-08-18T17:13:47.325Z,19.80
2022-08-18T17:16:16.810Z,19.80
2022-08-18T17:18:44.683Z,19.90
2022-08-18T17:21:16.045Z,20.00
2022-08-18T17:23:43.373Z,20.00
2022-08-18T17:26:41.562Z,20.00
2022-08-18T17:29:10.136Z,20.10
2022-08-18T17:31:46.836Z,20.20
2022-08-18T17:34:15.528Z,20.10
2022-08-18T17:36:53.883Z,20.10
2022-08-18T17:39:36.379Z,20.10
2022-08-18T17:42:23.225Z,20.00
2022-08-18T17:44:52.541Z,20.00
2022-08-18T17:47:29.206Z,20.00
2022-08-18T17:50:28.068Z,20.10
2022-08-18T17:53:06.335Z,20.10
2022-08-18T17:56:11.355Z,20.10
2022-08-18T17:58:46.190Z,20.20
2022-08-18T18:01:14.361Z,20.20
2022-08-18T18:03:43.985Z,20.10
2022-08-18T18:06:40.504Z,20.10
2022-08-18T18:09:32.182Z,20.10
2022-08-18T18:12:21.424Z,20.00
2022-08-18T18:14:48.815Z,20.00
2022-08-18T18:17:29.285Z,20.10
2022-08-18T18:20:15.722Z,20.00
2022-08-18T18:22:44.606Z,20.00
2022-08-18T18:25:13.049Z,20.00
2022-08-18T18:27:43.822Z,20.00
2022-08-18T18:30:19.358Z,19.90
2022-08-18T18:33:02.651Z,19.90
2022-08-18T18:35:54.999Z,19.90
2022-08-18T18:38:27.387Z,19.90
2022-08-18T18:41:05.022Z,19.80
2022-08-18T18:43:38.234Z,19.80
2022-08-18T18:46:19.473Z,19.70
2022-08-18T18:48:55.553Z,19.70
2022-08-18T18:51:33.946Z,19.60
2022-08-18T18:54:27.902Z,19.60
2022-08-18T18:56:56.717Z,19.50
2022-08-18T18:59:45.264Z,19.50
2022-08-18T19:02:33.169Z,19.40
2022-08-18T19:05:12.208Z,19.30
2022-08-18T19:08:08.149Z,19.30
2022-08-18T19:10:57.388Z,19.20
2022-08-18T19:13:35.195Z,19.20
2022-08-18T19:16:26.733Z,19.20
2022-08-18T19:19:38.205Z,19.20
2022-08-18T19:22:03.563Z,19.20
2022-08-18T19:24:38.858Z,19.20
2022-08-18T19:27:11.314Z,19.30
2022-08-18T19:29:42.488Z,19.40
2022-08-18T19:32:17.767Z,19.40
2022-08-18T19:34:52.711Z,19.30
2022-08-18T19:37:31.671Z,19.20
2022-08-18T19:40:13.772Z,19.20
2022-08-18T19:43:06.262Z,19.20
2022-08-18T19:45:55.804Z,19.30
2022-08-18T19:48:40.604Z,19.10
2022-08-18T19:51:25.497Z,19.20
2022-08-18T19:54:19.766Z,19.10
2022-08-18T19:57:36.640Z,19.20
2022-08-18T20:00:30.449Z,19.20
2022-08-18T20:03:27.972Z,19.20
2022-08-18T20:06:34.574Z,19.30
2022-08-18T20:09:32.700Z,19.30
2022-08-18T20:12:25.340Z,19.20
2022-08-18T20:15:10.465Z,19.10
2022-08-18T20:17:54.220Z,19.00
2022-08-18T20:20:23.495Z,18.90
2022-08-18T20:22:57.214Z,18.90
2022-08-18T20:25:24.601Z,18.90
2022-08-18T20:27:53.148Z,18.90
2022-08-18T20:30:20.322Z,18.80
2022-08-18T20:33:25.755Z,18.90
2022-08-18T20:36:13.947Z,18.90
2022-08-18T20:38:52.155Z,18.80
2022-08-18T20:41:28.184Z,18.80
2022-08-18T20:44:21.917Z,18.90
2022-08-18T20:47:28.150Z,18.90
2022-08-18T20:50:18.567Z,19.00
2022-08-18T20:53:00.616Z,19.00
2022-08-18T20:55:56.742Z,19.00
2022-08-18T20:58:32.087Z,18.90
